x

9442396 - La Push, Wa (lapw1) Weather Station

8:36pm - Sun 21st Dec 2014 All times are PST. -8 hours from GMT.

  • Wind
    10mph, 14mph gusts
  • Sea Temp 47°f
  • 空気 Temp 53°f
  • Sea Pressure 1018.6mb
  • 9442396 - La Push, Wa
  • 9442396 - La Push, Wa

More Historic Weather Station data

Upgrade to MSW Pro to gain access to the past 30 days of data for over 8000 Wavebouys and Weather Stations around the globe.

Join Pro

Comparision Forecast

View Surf forecast
   
Sun 12/21 8:36pm 10 14 mph 1018.6mb 47f 53f
8:30pm 9 14 mph 1018.5mb 47f 53f
8:24pm 7 14 mph 1018.5mb 47f 53f
8:18pm 9 11 mph 1018.7mb 47f 53f
8:12pm 9 13 mph 1018.6mb 47f 53f
8:06pm 9 16 mph 1018.5mb 47f 53f
8:00pm 9 14 mph 1018.5mb 47f 53f
7:36pm 11 15 mph 1018.4mb 47f 53f
7:30pm 13 14 mph 1018.2mb 47f 53f
7:24pm 10 14 mph 1017.9mb 47f 53f
7:18pm 10 15 mph 1017.7mb 47f 53f
7:12pm 13 16 mph 1017.8mb 47f 53f
7:06pm 10 14 mph 1018mb 47f 53f
7:00pm 11 16 mph 1018.2mb 47f 53f
6:36pm 10 14 mph 1017.8mb 47f 53f
6:30pm 10 15 mph 1017.8mb 47f 53f
6:24pm 11 14 mph 1017.7mb 47f 53f
6:18pm 11 15 mph 1017.7mb 47f 53f
6:12pm 13 16 mph 1017.7mb 47f 53f
6:06pm 14 16 mph 1018.1mb 46f 53f
6:00pm 11 16 mph 1018.2mb 47f 53f
5:36pm 9 13 mph 1017.9mb 46f 53f
5:30pm 11 15 mph 1017.8mb 46f 53f
5:24pm 11 16 mph 1017.6mb 46f 53f
5:18pm 10 15 mph 1017.7mb 46f 53f
5:12pm 10 14 mph 1017.5mb 46f 53f
5:06pm 11 16 mph 1017.6mb 46f 53f
5:00pm 11 15 mph 1017.7mb 46f 53f
4:36pm 10 16 mph 1017.2mb 46f 53f
4:30pm 10 16 mph 1016.8mb 46f 53f
4:24pm 11 16 mph 1016.7mb 46f 53f
4:18pm 9 14 mph 1016.6mb 46f 53f
4:12pm 10 13 mph 1016.5mb 46f 53f
4:06pm 10 15 mph 1016.2mb 47f 53f
4:00pm 8 14 mph 1016.6mb 47f 53f
3:36pm 10 14 mph 1017mb 47f 53f
3:30pm 11 15 mph 1016.7mb 47f 53f
3:24pm 10 14 mph 1016.6mb 47f 53f
3:18pm 11 16 mph 1016.8mb 47f 53f
3:12pm 13 20 mph 1016.4mb 47f 53f
3:06pm 11 16 mph 1015.8mb 47f 53f
3:00pm 10 16 mph 1016.1mb 47f 53f
2:36pm 11 14 mph 1015.9mb 47f 53f
2:30pm 9 13 mph 1016mb 47f 53f
2:24pm 8 13 mph 1015.9mb 47f 53f
2:18pm 10 14 mph 1016.2mb 47f 53f
2:12pm 11 15 mph 1016mb 47f 53f
2:06pm 10 16 mph 1015.9mb 47f 53f
2:00pm 11 15 mph 1015.7mb 47f 53f
1:36pm 11 15 mph 1015.5mb 47f 53f
1:30pm 10 14 mph 1015.5mb 47f 53f
1:24pm 13 15 mph 1015.5mb 47f 53f
1:18pm 13 17 mph 1015.5mb 47f 53f
1:12pm 13 16 mph 1015.7mb 47f 53f
1:06pm 11 15 mph 1015.8mb 47f 53f
1:00pm 10 13 mph 1015.7mb 47f 53f
12:36pm 13 20 mph 1015.3mb 47f 53f
12:30pm 14 18 mph 1015.1mb 47f 53f
12:24pm 14 20 mph 1015.1mb 47f 51f
12:18pm 8 13 mph 1014.9mb 47f 51f
12:12pm 8 13 mph 1014.6mb 47f 50f
12:06pm 6 15 mph 1014.5mb 47f 51f
12:00pm 11 15 mph 1014.6mb 47f 52f
11:36am 10 13 mph 1014.2mb 48f 53f
11:30am 9 14 mph 1014.3mb 48f 52f
11:24am 9 15 mph 1014.4mb 48f 53f
11:18am 11 15 mph 1014.5mb 48f 53f
11:12am 14 16 mph 1014.3mb 48f 53f
11:06am 14 17 mph 1014.2mb 48f 53f
11:00am 14 18 mph 1013.9mb 48f 53f
10:36am 10 14 mph 1013.9mb 48f 53f
10:30am 10 14 mph 1013.4mb 48f 53f
10:24am 11 15 mph 1013.6mb 48f 53f
10:18am 10 14 mph 1013.4mb 48f 53f
10:12am 10 15 mph 1013.3mb 48f 53f
10:06am 11 15 mph 1013.5mb 48f 53f
10:00am 13 16 mph 1013.5mb 48f 53f
9:36am 13 17 mph 1013.4mb 47f 53f
9:30am 14 18 mph 1013.1mb 47f 53f
9:24am 11 15 mph 1013.1mb 47f 53f
9:18am 13 17 mph 1012.8mb 47f 53f
9:12am 14 17 mph 1012.9mb 47f 53f
9:06am 16 22 mph 1013.1mb 47f 53f
9:00am 15 24 mph 1013.2mb 47f 53f
8:36am 16 22 mph 1012.5mb 47f 53f
8:30am 14 17 mph 1012.4mb 47f 53f
8:24am 14 16 mph 1012.1mb 47f 53f
8:18am 13 21 mph 1011.7mb 47f 53f
8:12am 11 15 mph 1011.7mb 47f 53f
8:06am 11 15 mph 1011.6mb 47f 53f
8:00am 13 15 mph - - 53f
7:36am 11 16 mph 1010.9mb 47f 53f
7:30am 14 17 mph 1011mb 47f 53f
7:24am 13 17 mph 1010.8mb 47f 53f
7:18am 14 18 mph 1010.7mb 47f 53f
7:12am 11 15 mph 1010.8mb 47f 53f
7:06am 11 15 mph 1010.7mb 47f 53f
7:00am 13 16 mph 1010.4mb 47f 53f
6:36am 10 14 mph 1009.7mb 47f 53f
6:30am 13 17 mph 1009.7mb 47f 53f
6:24am 11 15 mph 1009.8mb 47f 53f
6:18am 11 16 mph 1009.4mb 47f 52f
6:12am 11 15 mph 1008.9mb 47f 53f
6:06am 14 18 mph 1009.2mb 47f 53f
6:00am 15 21 mph 1009.4mb 47f 53f
5:36am 16 23 mph 1009.1mb 46f 53f
5:30am 16 23 mph 1008.9mb 46f 53f
5:24am 16 25 mph 1009mb 46f 53f
5:18am 22 30 mph 1008.8mb 47f 53f
5:12am 22 28 mph 1008.5mb 47f 53f
5:06am 18 23 mph 1008.3mb 46f 53f
5:00am 17 21 mph 1008.3mb 47f 53f
4:36am 17 23 mph 1007.9mb 46f 52f
4:30am 14 20 mph 1007.8mb 46f 53f
4:24am 17 22 mph 1007.8mb 47f 53f
4:18am 15 21 mph 1007.7mb 48f 53f
4:12am 16 22 mph 1007.4mb 48f 53f
4:06am 17 22 mph 1007.5mb 48f 53f
4:00am 18 22 mph 1007.5mb 48f 53f
3:36am 14 21 mph 1007.5mb 48f 53f
3:30am 16 22 mph 1007.5mb 48f 53f
3:24am 17 21 mph 1007.5mb 48f 53f
3:18am 16 18 mph 1007.3mb 48f 53f
3:12am 15 22 mph 1007.4mb 48f 53f
3:06am 18 30 mph 1007.4mb 48f 53f
3:00am 16 22 mph 1007.1mb 48f 53f
2:36am 17 22 mph 1007mb 48f 53f
2:30am 15 22 mph 1006.7mb 48f 53f
2:24am 16 23 mph 1006.6mb 48f 53f
2:18am 18 22 mph 1006.3mb 48f 53f
2:12am 15 21 mph 1006.4mb 48f 53f
2:06am 16 23 mph 1006.1mb 48f 53f
2:00am 16 22 mph 1006mb 48f 53f
1:36am 16 22 mph 1005.1mb 48f 53f
1:30am 18 25 mph 1005mb 48f 53f
1:24am 15 22 mph 1004.8mb 48f 53f
1:18am 15 22 mph 1004.6mb 48f 53f
1:12am 17 22 mph 1004.4mb 48f 53f
1:06am 14 21 mph 1004.6mb 48f 53f
1:00am 15 20 mph 1004.6mb 48f 53f
12:36am 15 21 mph 1003.9mb 48f 53f
12:30am 17 23 mph 1004mb 48f 53f
12:24am 17 25 mph 1004.1mb 48f 53f
12:18am 22 26 mph 1004.1mb 48f 53f
12:12am 18 25 mph 1003.9mb 48f 53f
12:06am 18 25 mph 1003.7mb 48f 53f
12:00am 17 23 mph 1003.6mb 48f 53f
Sat 12/20 11:36pm 16 24 mph 1002.3mb 48f 53f
11:30pm 18 22 mph 1001.9mb 48f 52f
11:24pm 20 25 mph 1001.9mb 48f 53f
11:18pm 18 25 mph 1001.7mb 48f 53f
11:12pm 20 26 mph 1001.5mb 48f 53f
11:06pm 15 23 mph 1001mb 48f 53f
11:00pm 17 22 mph - - 53f
10:18pm  -  mph 1000.4mb 48f -
10:12pm  -  mph 1000mb 48f -
10:06pm  -  mph 1000mb 48f -
10:00pm  -  mph 999.9mb 48f -
9:36pm 28 44 mph 999.2mb 47f 55f
9:30pm 33 41 mph 999.2mb 47f 55f
9:24pm 29 37 mph 998.9mb 47f 55f
9:18pm 31 37 mph 998.7mb 47f 55f
9:12pm 28 33 mph 998.4mb 47f 55f
9:06pm 22 29 mph 998.1mb 47f 55f
9:00pm 24 34 mph 997.9mb 47f 55f
8:54pm 26 34 mph 997.7mb 46f 55f
8:48pm 21 31 mph 997.4mb 46f 55f
8:36pm 21 31 mph 997.1mb 47f 55f
8:30pm 22 30 mph 997.3mb 47f 55f
8:24pm 23 33 mph 997.2mb 47f 55f
8:18pm 17 34 mph 997.1mb 47f 55f
8:12pm 23 33 mph 997.2mb 47f 55f
8:06pm 21 31 mph 997.1mb 47f 55f
8:00pm 22 33 mph 997.1mb 46f 55f
7:54pm 22 34 mph 997.1mb 46f 55f
7:48pm 23 30 mph 996.9mb 46f 55f
7:36pm 25 34 mph 996.9mb 46f 55f
7:30pm 25 32 mph 996.9mb 47f 55f
7:24pm 25 32 mph 996.9mb 46f 55f
7:18pm 25 34 mph 996.8mb 46f 55f
7:12pm 26 34 mph 996.8mb 46f 55f
7:06pm 26 34 mph 996.8mb 46f 55f
7:00pm 24 34 mph 996.7mb 46f 55f
6:54pm 26 32 mph 996.7mb 46f 54f
6:48pm 25 34 mph 996.6mb 46f 54f
6:36pm 23 32 mph 996.4mb 46f 55f
6:30pm 23 30 mph 996.4mb 46f 55f
6:24pm 24 33 mph 996.4mb 46f 55f
6:18pm 26 32 mph 996.4mb 46f 55f
6:12pm 26 40 mph 996.4mb 47f 55f
6:06pm 24 37 mph 996.3mb 46f 55f
6:00pm 25 36 mph 996.2mb 46f 55f
5:54pm 24 37 mph 996.1mb 46f 55f
5:48pm 26 34 mph 996mb 46f 55f
5:36pm 24 32 mph 996mb 47f 55f
5:30pm 24 37 mph 995.9mb 46f 55f
5:24pm 25 33 mph 996mb 46f 55f
5:18pm 26 34 mph 996mb 46f 55f
5:12pm 25 39 mph 995.9mb 46f 55f
5:06pm 29 37 mph 995.8mb 46f 55f
5:00pm 28 37 mph 995.6mb 46f 55f
4:54pm 23 38 mph 995.6mb 46f 55f
4:48pm 23 37 mph 995.4mb 46f 55f
4:36pm 23 33 mph 995.2mb 46f 54f
4:30pm 20 33 mph 995.2mb 46f 54f
4:24pm 18 33 mph - - 55f
4:18pm 21 32 mph 995.2mb 46f 54f
4:12pm 18 31 mph 995mb 46f 54f
4:06pm 17 29 mph 994.8mb 46f 54f
4:00pm 18 26 mph 994.8mb 46f 54f
3:54pm 15 26 mph 994.7mb 46f 54f
3:48pm 16 25 mph 994.6mb 46f 54f
3:36pm 18 30 mph 994.4mb 46f 54f
3:30pm 20 26 mph 994.1mb 46f 53f
3:24pm 20 26 mph 993.9mb 46f 53f
3:18pm 18 28 mph 993.8mb 46f 53f
3:12pm 20 25 mph 994.1mb 46f 53f
3:06pm 18 26 mph 994.1mb 46f 53f
3:00pm 21 26 mph - - 53f
2:54pm 21 26 mph 994mb 46f 54f
2:48pm 22 28 mph 994.1mb 46f 54f
2:36pm 20 24 mph 994.2mb 46f 53f
2:30pm 20 24 mph 994.4mb 46f 53f
2:24pm 17 24 mph 994.5mb 46f 53f
2:18pm 17 22 mph 994.7mb 46f 54f
2:12pm 17 23 mph 994.8mb 46f 54f
2:06pm 16 22 mph 995.1mb 46f 53f
2:00pm 17 23 mph 995.1mb 47f 53f
1:54pm 16 23 mph 995.1mb 47f 54f
1:48pm 18 23 mph 995.1mb 47f 54f
1:36pm 18 23 mph 995.2mb 47f 53f
1:30pm 17 24 mph 995.3mb 47f 53f
1:24pm 17 25 mph 995.5mb 46f 53f
1:18pm 17 25 mph 995.8mb 47f 52f
1:12pm 15 26 mph 996mb 47f 51f
1:06pm 17 24 mph 996.1mb 47f 51f
1:00pm 13 25 mph 996mb 47f 51f
12:54pm 17 23 mph 995.9mb 47f 51f
12:48pm 14 24 mph 995.7mb 47f 51f
12:36pm  -  mph 995.8mb 47f -
12:30pm  -  mph 996mb 47f -
12:24pm  -  mph 996.2mb 47f -
12:18pm  -  mph 996.2mb 48f -
12:12pm  -  mph 996.2mb 48f -
12:06pm  -  mph 996.4mb 48f -
12:00pm  -  mph 996.4mb 49f -
11:54am  -  mph 996.5mb 49f -
11:48am  -  mph 996.6mb 49f -
11:36am 11 24 mph 996.9mb 49f 51f
11:30am 10 17 mph 996.9mb 49f 51f
11:24am 11 18 mph 996.9mb 49f 50f
11:18am 11 18 mph 997mb 49f 50f
11:12am 7 15 mph 997mb 50f 50f
11:06am 11 16 mph 997.1mb 50f 50f
11:00am 10 26 mph 997.2mb 49f 50f
10:54am 10 17 mph 997.3mb 50f 50f
10:48am 14 22 mph 997.4mb 49f 51f
10:36am 10 16 mph 997.7mb 50f 50f
10:30am 8 16 mph 997.7mb 50f 50f
10:24am 8 14 mph 997.8mb 50f 50f
10:18am 7 14 mph 997.9mb 50f 50f
10:12am 10 16 mph 997.9mb 50f 50f
10:06am 8 13 mph 998mb 50f 49f
10:00am 7 16 mph 998mb 50f 49f
9:54am 6 15 mph 998.1mb 50f 49f
9:48am 7 11 mph 998.1mb 50f 49f
9:36am 7 13 mph 998.1mb 49f 49f
9:30am 6 13 mph 998.2mb 49f 49f
9:24am 6 10 mph 998.2mb 49f 49f
9:18am 6 10 mph 998.1mb 49f 49f
9:12am 6 11 mph 998.1mb 49f 49f
9:06am 8 11 mph 998mb 49f 49f
9:00am 8 15 mph 998mb 49f 49f
8:54am 6 14 mph 998mb 49f 49f
8:48am 10 16 mph 998mb 49f 49f
8:36am 8 14 mph 998mb 49f 49f
8:30am 6 10 mph 998mb 48f 49f
8:24am 8 15 mph 997.9mb 48f 49f
8:18am 9 18 mph 997.9mb 48f 49f
8:12am 7 15 mph 997.9mb 48f 49f
8:06am 7 15 mph 997.8mb 48f 49f
8:00am 10 21 mph 997.8mb 47f 49f
7:54am 11 21 mph 997.9mb 47f 49f
7:48am 10 20 mph 997.9mb 47f 49f
7:36am 8 15 mph 998.1mb 46f 49f
7:30am 9 16 mph 998.3mb 46f 49f
7:24am 8 18 mph 998.4mb 46f 48f
7:18am 7 16 mph 998.4mb 45f 48f
7:12am 8 18 mph 998.4mb 45f 48f
7:06am 9 20 mph 998.5mb 45f 48f
7:00am 11 23 mph 998.5mb 45f 47f
6:54am 8 16 mph 998.6mb 45f 47f
6:48am 11 15 mph 998.4mb 45f 47f
6:36am 11 23 mph 998.4mb 45f 47f
6:30am 11 22 mph 998.7mb 45f 47f
6:24am 13 23 mph 998.8mb 45f 47f
6:18am 8 18 mph 998.8mb 45f 47f
6:12am 6 16 mph 998.8mb 45f 47f
6:06am 13 23 mph 998.9mb 45f 47f
6:00am 9 14 mph 998.7mb 45f 47f
5:54am 13 18 mph 998.7mb 45f 47f
5:48am 11 21 mph 998.7mb 45f 47f
5:36am 11 20 mph 998.6mb 45f 47f
5:30am 8 22 mph 998.7mb 45f 47f
5:24am 11 18 mph 999.2mb 45f 47f
5:18am 11 22 mph 999.4mb 45f 47f
5:12am 9 22 mph 999.3mb 45f 47f
5:06am 10 22 mph 999.3mb 45f 47f
5:00am 13 24 mph 999.4mb 45f 47f
4:54am 10 17 mph 999.6mb 45f 47f
4:48am 10 17 mph 999.7mb 45f 47f
4:36am 13 21 mph 999.9mb 45f 47f
4:30am 11 16 mph 1000.1mb 45f 47f
4:24am 11 21 mph 1000.2mb 45f 47f
4:18am 11 21 mph 1000.4mb 45f 47f
4:12am 8 20 mph 1000.4mb 45f 47f
4:06am 14 23 mph 1000.7mb 45f 47f
4:00am 7 29 mph 1001mb 45f 47f
3:54am 10 17 mph 1001mb 45f 47f
3:48am 11 22 mph 1000.9mb 45f 47f
3:36am 11 26 mph - - 47f
3:30am 8 22 mph 1001.1mb 45f 47f
3:24am 11 22 mph 1001.2mb 45f 47f
3:18am 13 20 mph 1001.3mb 45f 47f
3:12am 9 17 mph 1001.4mb 45f 48f
3:06am 11 21 mph 1001.5mb 45f 48f
3:00am 15 26 mph 1001.6mb 45f 48f
2:54am 17 26 mph 1001.7mb 45f 48f
2:48am 15 24 mph 1001.9mb 45f 48f
2:36am 10 21 mph 1002mb 45f 48f
2:30am 11 22 mph 1002mb 45f 48f
2:24am 16 22 mph 1002.1mb 45f 48f
2:18am 11 22 mph 1002.3mb 45f 48f
2:12am 13 21 mph 1002.5mb 45f 48f
2:06am 14 24 mph 1002.6mb 45f 48f
2:00am 10 24 mph 1002.7mb 45f 47f
1:54am 13 23 mph 1002.7mb 45f 47f
1:48am 11 21 mph 1002.9mb 45f 47f
1:36am 11 20 mph 1003.2mb 45f 47f
1:30am 9 28 mph 1003.4mb 45f 47f
1:24am 11 24 mph 1003.6mb 46f 48f
1:18am 16 25 mph 1003.7mb 46f 48f
1:12am 15 25 mph 1003.8mb 46f 48f
1:06am 11 25 mph 1004.1mb 46f 48f
1:00am 9 17 mph 1004.3mb 46f 48f
12:54am 14 24 mph 1004.5mb 46f 47f
12:48am 8 21 mph 1004.7mb 46f 47f
12:36am 14 21 mph 1005mb 46f 47f
12:30am 9 22 mph 1005.1mb 46f 47f
12:24am 13 22 mph 1005.3mb 46f 47f
12:18am 8 18 mph 1005.4mb 46f 47f
12:12am 13 25 mph 1005.6mb 46f 47f
12:06am 15 29 mph 1005.7mb 46f 48f
12:00am 10 20 mph 1005.8mb 47f 48f
Fri 12/19 11:54pm 9 24 mph 1005.7mb 46f 48f
11:48pm 11 21 mph 1005.7mb 47f 48f
11:36pm 10 22 mph 1005.9mb 47f 48f
11:30pm 8 21 mph 1005.8mb 47f 48f
11:24pm 14 25 mph 1006mb 47f 48f
11:18pm 11 25 mph 1006.3mb 47f 48f
11:12pm 15 25 mph 1006.4mb 47f 48f
11:06pm 15 29 mph 1006.6mb 47f 48f
11:00pm 13 30 mph 1006.8mb 47f 48f
10:54pm 11 20 mph 1006.9mb 47f 48f
10:48pm 15 29 mph 1006.9mb 47f 48f
10:36pm 14 25 mph 1006.7mb 47f 49f
10:30pm 11 17 mph 1006.7mb 47f 49f
10:24pm 13 20 mph 1006.8mb 47f 49f
10:18pm 9 16 mph 1007mb 46f 49f
10:12pm 14 22 mph 1007.2mb 46f 49f
10:06pm 10 17 mph 1007.3mb 46f 49f
10:00pm 8 16 mph 1007.4mb 46f 48f
9:54pm 10 15 mph 1007.6mb 46f 48f
9:48pm 11 17 mph 1007.7mb 46f 48f
9:36pm 8 16 mph 1007.6mb 46f 48f
9:30pm 7 17 mph 1007.6mb 46f 48f
9:24pm 9 17 mph 1007.6mb 46f 48f
9:18pm 7 16 mph 1007.6mb 45f 48f
9:12pm 9 21 mph 1007.6mb 45f 48f
9:06pm 10 18 mph 1007.7mb 45f 47f
9:00pm 8 14 mph - - 47f
8:54pm 9 15 mph 1008.1mb 45f 48f
8:48pm 8 15 mph 1008.2mb 45f 48f
8:36pm 14 23 mph 1008.3mb 45f 48f
8:30pm 8 20 mph 1008.5mb 45f 48f
8:24pm 10 18 mph 1008.6mb 45f 48f
8:18pm 9 17 mph 1008.8mb 45f 48f
8:12pm 9 18 mph 1008.9mb 45f 48f
8:06pm 9 14 mph 1009.1mb 45f 48f
8:00pm 11 18 mph 1009.1mb 45f 48f
7:54pm 11 22 mph 1009.3mb 45f 47f
7:48pm 8 20 mph 1009.4mb 45f 47f
7:36pm 9 23 mph 1009.5mb 45f 48f
7:30pm 13 17 mph 1009.5mb 45f 47f
7:24pm 7 15 mph 1009.6mb 44f 47f
7:18pm 10 16 mph 1009.7mb 44f 47f
7:12pm 11 20 mph 1009.7mb 44f 47f
7:06pm 9 16 mph 1009.8mb 44f 47f
7:00pm 7 20 mph 1009.8mb 44f 47f
6:54pm 9 15 mph 1009.8mb 44f 47f
6:48pm 11 20 mph 1009.9mb 44f 48f
6:36pm 9 17 mph 1009.9mb 44f 48f
6:30pm 14 23 mph 1010mb 44f 48f
6:24pm 13 16 mph 1010.1mb 44f 48f
6:18pm 8 18 mph 1010.1mb 45f 48f
6:12pm 9 15 mph 1010.2mb 45f 47f
6:06pm 7 17 mph 1010.3mb 45f 47f
6:00pm 8 14 mph 1010.2mb 45f 48f
5:54pm 10 15 mph 1010.3mb 45f 48f
5:48pm 6 14 mph 1010.4mb 44f 48f
5:36pm 9 17 mph 1010.5mb 44f 49f
5:30pm 9 17 mph 1010.7mb 44f 49f
5:24pm 8 20 mph 1010.7mb 44f 49f
5:18pm 10 20 mph 1010.8mb 44f 49f
5:12pm 9 16 mph 1010.8mb 44f 49f
5:06pm 13 18 mph 1010.8mb 44f 49f
5:00pm 7 10 mph 1010.8mb 44f 49f
4:54pm 7 10 mph 1010.8mb 44f 49f
4:48pm 8 11 mph 1010.7mb 45f 49f
4:36pm 9 17 mph 1010.6mb 45f 49f
4:30pm 5 14 mph 1010.7mb 45f 49f
4:24pm 9 14 mph 1010.6mb 45f 49f
4:18pm 7 16 mph 1010.5mb 45f 50f
4:12pm 8 15 mph 1010.5mb 45f 51f
4:06pm 8 15 mph 1010.3mb 45f 50f
4:00pm 6 16 mph - - 49f
3:54pm 7 16 mph 1010.2mb 45f 49f
3:48pm 11 16 mph 1010.3mb 45f 49f
3:36pm 20 24 mph 1010.1mb 45f 51f
3:30pm 11 17 mph 1010.2mb 45f 50f
3:24pm 9 15 mph 1010.3mb 45f 48f
3:18pm 5 7 mph 1010.5mb 45f 49f
3:12pm 7 13 mph 1010.6mb 45f 49f
3:06pm 11 18 mph 1010.6mb 45f 48f
3:00pm 15 22 mph 1010.6mb 46f 49f
2:54pm 13 23 mph 1010.8mb 46f 49f
2:48pm 14 23 mph 1010.7mb 46f 49f
2:36pm  -  mph 1010.6mb 46f -
2:30pm  -  mph 1010.4mb 46f -
2:24pm  -  mph 1010.4mb 46f -
2:18pm  -  mph 1010.4mb 46f -
2:12pm  -  mph 1010.6mb 46f -
2:06pm  -  mph 1010.7mb 46f -
2:00pm  -  mph 1010.7mb 46f -
1:54pm  -  mph 1010.8mb 46f -
1:48pm  -  mph 1010.8mb 46f -
1:36pm 14 20 mph 1010.8mb 46f 49f
1:30pm 8 11 mph 1010.8mb 46f 49f
1:24pm 9 15 mph 1010.8mb 46f 49f
1:18pm 8 14 mph - - 50f
1:12pm 10 15 mph 1010.8mb 46f 50f
1:06pm 9 16 mph 1010.7mb 46f 50f
1:00pm 8 18 mph 1010.7mb 46f 51f
12:54pm 13 22 mph 1010.7mb 46f 51f
12:48pm 14 26 mph 1010.7mb 46f 51f
12:36pm 13 21 mph 1010.6mb 46f 51f
12:30pm 17 24 mph 1010.6mb 46f 51f
12:24pm 18 26 mph 1010.6mb 46f 52f
12:18pm 22 25 mph 1010.6mb 46f 52f
12:12pm 18 28 mph 1010.7mb 46f 51f
12:06pm 15 28 mph 1010.7mb 47f 49f
12:00pm 24 32 mph 1010.7mb 47f 48f
11:54am 7 18 mph 1010.8mb 47f 47f
11:48am 5 11 mph 1010.8mb 47f 46f
11:36am  -  mph 1010.9mb 47f -
11:30am  -  mph 1010.9mb 47f -
11:24am  -  mph 1011mb 48f -
11:18am  -  mph 1011.1mb 48f -
11:12am  -  mph 1011.2mb 48f -
11:06am  -  mph 1011.2mb 48f -
11:00am  -  mph 1011.1mb 49f -
10:54am  -  mph 1011.3mb 49f -
10:48am  -  mph 1011.3mb 49f -
10:36am 7 13 mph 1011.4mb 50f 45f
10:30am 5 11 mph 1011.5mb 50f 45f
10:24am 5 10 mph 1011.5mb 50f 45f
10:18am 7 11 mph 1011.4mb 50f 46f
10:12am 8 13 mph 1011.4mb 51f 46f
10:06am 7 13 mph 1011.1mb 51f 46f
10:00am 6 13 mph - - 46f
9:54am 6 11 mph 1010.7mb 51f 46f
9:48am 9 14 mph 1010.8mb 51f 46f
9:36am 5 11 mph 1010.6mb 51f 47f
9:30am 9 15 mph 1010.6mb 51f 47f
9:24am 7 21 mph 1010.5mb 51f 47f
9:18am 9 13 mph - - 47f
9:12am 6 14 mph 1010.4mb 51f 47f
9:06am 14 17 mph 1010.3mb 51f 47f
9:00am 10 16 mph 1010.2mb 51f 47f
8:54am 13 17 mph 1010.2mb 51f 47f
8:48am 6 15 mph 1009.6mb 51f 47f
8:36am 6 14 mph 1009.4mb 51f 47f
8:30am 6 10 mph 1009.5mb 51f 47f
8:24am 3 7 mph 1009.5mb 51f 47f
8:18am 6 11 mph 1009.4mb 51f 46f
8:12am 5 14 mph 1009.4mb 51f 46f
8:06am 5 8 mph 1009.4mb 51f 47f
8:00am 5 9 mph 1009.3mb 51f 47f
7:54am 6 11 mph 1009.2mb 51f 47f
7:48am 6 9 mph 1009mb 51f 48f
7:36am 11 16 mph 1008.8mb 51f 49f
7:30am 8 13 mph 1008.8mb 51f 50f
7:24am 9 16 mph 1008.7mb 51f 50f
7:18am 14 18 mph 1008.8mb 51f 50f
7:12am 10 17 mph 1008.7mb 51f 49f
7:06am 8 15 mph 1008.7mb 51f 49f
7:00am 6 15 mph 1008.6mb 51f 49f
6:54am 8 16 mph 1008.6mb 51f 50f
6:48am 14 17 mph 1008.6mb 51f 47f
6:36am 5 14 mph 1008.5mb 51f 48f
6:30am 5 9 mph 1008.4mb 50f 48f
6:24am 6 9 mph 1008.4mb 50f 48f
6:18am 6 9 mph 1008.3mb 50f 48f
6:12am 7 10 mph 1008.4mb 50f 49f
6:06am 9 16 mph 1008.4mb 49f 48f
6:00am 5 13 mph 1008.3mb 49f 49f
5:54am 9 15 mph 1008.2mb 48f 48f
5:48am 8 13 mph 1008.1mb 48f 49f
5:36am 10 13 mph 1008.1mb 47f 47f
5:30am 7 11 mph 1007.9mb 47f 48f
5:24am 9 14 mph 1007.9mb 46f 48f
5:18am 8 14 mph 1007.8mb 46f 48f
5:12am 9 14 mph 1007.7mb 46f 48f
5:06am 9 13 mph 1007.8mb 45f 47f
5:00am 6 8 mph 1007.7mb 45f 47f
4:54am 9 11 mph 1007.7mb 45f 47f
4:48am 9 14 mph 1007.8mb 45f 47f
4:36am 17 25 mph 1008.2mb 46f 47f
4:30am 18 29 mph 1007.9mb 46f 50f
4:24am 22 26 mph 1007.7mb 46f 51f
4:18am 18 25 mph 1007.6mb 46f 50f
4:12am 22 26 mph 1007.7mb 46f 51f
4:06am 21 33 mph 1007.6mb 46f 51f
4:00am 18 25 mph 1007.5mb 46f 52f
3:54am 15 21 mph 1007.3mb 46f 52f
3:48am 16 21 mph 1007.2mb 46f 51f
3:36am 13 20 mph 1007.1mb 46f 52f
3:30am 15 18 mph 1007.1mb 46f 52f
3:24am 16 21 mph 1007.1mb 46f 51f
3:18am 14 17 mph 1007.1mb 46f 52f
3:12am 16 22 mph 1007.1mb 46f 51f
3:06am 14 17 mph 1007.1mb 46f 52f
3:00am 13 21 mph 1007.1mb 46f 52f
2:54am 14 18 mph 1007.1mb 46f 52f
2:48am 15 20 mph 1007.1mb 46f 52f
2:36am 14 16 mph 1007.1mb 46f 52f
2:30am 14 17 mph 1007mb 46f 51f
2:24am 14 18 mph 1007mb 46f 52f
2:18am 14 17 mph 1006.9mb 46f 52f
2:12am 14 18 mph 1006.9mb 46f 52f
2:06am 14 20 mph 1006.8mb 46f 52f
2:00am 15 22 mph 1006.7mb 46f 52f
1:54am 17 20 mph 1006.6mb 47f 52f
1:48am 17 23 mph 1006.5mb 47f 52f
1:36am 14 21 mph 1006.4mb 47f 52f
1:30am 16 22 mph 1006.2mb 47f 52f
1:24am 13 21 mph 1006.1mb 48f 51f
1:18am 13 26 mph 1006mb 48f 52f
1:12am 15 20 mph 1005.9mb 49f 52f
1:06am 16 22 mph 1006mb 49f 52f
1:00am 16 20 mph 1005.9mb 49f 52f
12:54am 18 25 mph 1005.9mb 50f 52f
12:48am 17 23 mph 1005.8mb 50f 52f
12:36am 15 20 mph 1005.6mb 51f 52f
12:30am 15 21 mph 1005.6mb 51f 52f
12:24am 15 21 mph 1005.5mb 51f 52f
12:18am 16 22 mph 1005.5mb 51f 52f
12:12am 17 22 mph 1005.4mb 51f 52f
12:06am 17 22 mph 1005.4mb 51f 52f
12:00am 20 25 mph 1005.4mb 51f 52f
Thu 12/18 11:54pm 17 23 mph 1005.3mb 51f 52f
11:48pm 14 25 mph 1005.3mb 51f 52f
11:36pm 21 29 mph 1005mb 51f 53f
11:30pm 23 28 mph 1005mb 51f 53f
11:24pm 17 23 mph 1004.8mb 51f 52f
11:18pm 14 25 mph 1004.8mb 51f 52f
11:12pm 18 23 mph 1004.7mb 51f 53f
11:06pm 16 21 mph 1004.7mb 51f 53f
11:00pm 18 22 mph 1004.7mb 51f 53f
10:54pm 16 23 mph 1004.6mb 51f 53f
10:48pm 15 22 mph 1004.5mb 51f 53f
10:36pm 16 22 mph 1004.4mb 51f 53f
10:30pm 15 21 mph 1004.3mb 51f 53f
10:24pm 16 21 mph 1004.3mb 51f 52f
10:18pm 15 20 mph 1004.3mb 51f 51f
10:12pm 13 20 mph 1004.3mb 51f 51f
10:06pm 9 17 mph 1004.3mb 51f 51f
10:00pm 14 22 mph 1004.2mb 51f 51f
9:54pm 14 20 mph 1004.2mb 51f 50f
9:48pm 11 21 mph 1004.2mb 51f 50f
9:36pm 10 16 mph 1004.2mb 51f 51f
9:30pm 9 21 mph 1004.2mb 51f 51f
9:24pm 9 22 mph 1004.1mb 51f 50f
9:18pm 9 16 mph 1004.1mb 51f 50f
9:12pm 9 15 mph 1004mb 51f 50f
9:06pm 7 17 mph 1003.9mb 51f 50f
9:00pm 10 14 mph 1003.9mb 51f 50f
8:54pm 7 13 mph 1003.8mb 51f 49f
8:48pm 9 14 mph 1003.8mb 51f 49f
8:36pm 6 10 mph - - 49f
8:30pm 6 10 mph 1003.7mb 51f 49f
8:24pm 5 10 mph 1003.5mb 51f 49f
8:18pm 5 9 mph 1003.3mb 51f 49f
8:12pm 7 10 mph 1003.3mb 51f 48f
8:06pm 6 9 mph 1003.2mb 51f 48f
8:00pm 3 6 mph 1003mb 51f 48f
7:54pm 3 8 mph 1003mb 51f 48f
7:48pm 2 6 mph 1002.9mb 51f 48f
7:36pm 6 8 mph 1002.7mb 51f 48f
7:30pm 6 10 mph 1003mb 51f 48f
7:24pm 8 13 mph 1003mb 51f 48f
7:18pm 7 11 mph 1002.9mb 50f 49f
7:12pm 7 11 mph 1002.9mb 50f 49f
7:06pm 9 11 mph 1002.8mb 50f 49f
7:00pm 9 15 mph 1002.6mb 50f 49f
6:54pm 9 25 mph 1002.3mb 49f 51f
6:48pm 17 30 mph 1002.1mb 49f 51f
6:36pm 13 21 mph 1001.9mb 47f 50f
6:30pm 13 20 mph 1001.5mb 47f 50f
6:24pm 11 26 mph 1001.5mb 46f 50f
6:18pm 15 24 mph 1001.4mb 46f 50f
6:12pm 10 20 mph 1001.5mb 45f 50f
6:06pm 14 25 mph 1001.5mb 45f 50f
6:00pm 13 28 mph 1001.6mb 45f 50f
5:54pm 14 24 mph 1001.5mb 45f 50f
5:48pm 17 29 mph 1001.5mb 45f 50f
5:36pm 10 25 mph 1001.6mb 45f 50f
5:30pm 14 24 mph 1001.6mb 45f 50f
5:24pm 10 26 mph 1001.8mb 45f 50f
5:18pm 16 25 mph 1001.9mb 45f 49f
5:12pm 13 23 mph 1001.9mb 45f 49f
5:06pm 15 22 mph 1002.2mb 45f 49f
5:00pm 11 17 mph 1002.2mb 45f 49f
4:54pm 10 28 mph - - 49f
4:48pm 10 17 mph 1002.2mb 45f 49f
4:36pm  -  mph 1002.5mb 45f -
4:30pm  -  mph 1002.7mb 45f -
4:24pm  -  mph 1002.8mb 45f -
4:18pm  -  mph 1003mb 45f -
4:12pm  -  mph 1003.1mb 45f -
4:06pm  -  mph 1003.2mb 45f -
4:00pm  -  mph 1003.2mb 45f -
3:54pm  -  mph 1003.2mb 45f -
3:48pm  -  mph 1003.3mb 45f -
3:36pm 14 33 mph - - 50f
3:30pm 14 23 mph 1003.4mb 45f 51f
3:24pm 20 32 mph 1003.5mb 45f 51f
3:18pm 16 29 mph 1003.6mb 45f 51f
3:12pm 13 21 mph 1003.7mb 45f 51f
3:06pm 13 23 mph 1003.5mb 45f 51f
3:00pm 14 30 mph 1003.5mb 45f 52f
2:54pm 16 28 mph 1003.6mb 45f 52f
2:48pm 11 20 mph 1003.7mb 46f 52f
2:36pm 13 28 mph 1004mb 46f 52f
2:30pm 13 26 mph 1003.9mb 46f 52f
2:24pm 15 31 mph 1003.9mb 46f 52f
2:18pm 20 30 mph 1003.9mb 46f 52f
2:12pm 16 23 mph 1004.1mb 46f 52f
2:06pm 11 30 mph 1004.2mb 46f 52f
2:00pm 14 24 mph 1004.4mb 46f 52f
1:54pm 16 24 mph 1004.4mb 46f 52f
1:48pm 10 23 mph 1004.5mb 47f 52f
1:36pm 15 26 mph 1004.8mb 46f 52f
1:30pm 16 25 mph 1005.1mb 46f 52f
1:24pm 15 36 mph 1005.2mb 47f 52f
1:18pm 20 30 mph 1005.1mb 47f 52f
1:12pm 15 25 mph 1005.2mb 47f 52f
1:06pm 15 26 mph 1005.3mb 47f 52f
1:00pm 16 28 mph 1005.4mb 47f 52f
12:54pm 13 21 mph 1005.6mb 48f 52f
12:48pm 14 23 mph 1005.6mb 48f 52f
12:36pm 14 17 mph 1005.8mb 48f 51f
12:30pm 8 15 mph 1005.7mb 49f 51f
12:24pm 10 20 mph 1005.7mb 50f 51f
12:18pm 10 21 mph 1005.8mb 50f 51f
12:12pm 13 22 mph 1005.9mb 51f 51f
12:06pm 8 16 mph 1006.1mb 51f 50f
12:00pm 9 16 mph 1006.3mb 51f 50f
11:54am 7 15 mph 1006.5mb 51f 50f
11:48am 6 11 mph - - 50f
11:36am 5 9 mph 1006.9mb 51f 49f
11:30am 7 13 mph 1006.9mb 51f 49f
11:24am 5 10 mph 1007.1mb 51f 49f
11:18am 6 14 mph 1007.2mb 51f 49f
11:12am 6 10 mph 1007.4mb 51f 49f
11:06am 7 13 mph 1007.3mb 51f 49f
11:00am 9 13 mph 1007.5mb 51f 49f
10:54am 8 11 mph 1007.5mb 52f 48f
10:48am 6 10 mph 1007.6mb 52f 48f
10:36am 7 13 mph 1007.7mb 52f 48f
10:30am 7 11 mph 1008mb 52f 48f
10:24am 6 11 mph 1008.3mb 52f 47f
10:18am 5 11 mph 1008.3mb 52f 47f
10:12am 6 9 mph 1008.3mb 52f 47f
10:06am 6 13 mph 1008.6mb 52f 47f
10:00am 6 9 mph 1008.7mb 52f 47f
9:54am 6 10 mph - - 47f
9:48am 7 11 mph 1008.7mb 52f 47f
9:36am 6 10 mph 1009mb 52f 47f
9:30am 6 10 mph 1008.9mb 52f 47f
9:24am 7 10 mph 1009.1mb 52f 47f
9:18am 7 11 mph 1009.1mb 52f 47f
9:12am 6 10 mph 1009.1mb 52f 47f
9:06am 5 8 mph 1009.2mb 52f 47f
9:00am 6 9 mph - - 47f
8:54am 6 13 mph 1009.5mb 52f 47f
8:48am 5 9 mph 1009.7mb 52f 47f
8:36am 5 10 mph 1009.8mb 52f 47f
8:30am 7 9 mph 1009.7mb 52f 47f
8:24am 6 8 mph 1009.7mb 52f 47f
8:18am 3 7 mph 1009.8mb 52f 47f
8:12am 6 9 mph 1009.8mb 52f 47f
8:06am 5 8 mph 1009.9mb 52f 47f
8:00am 5 7 mph 1010.1mb 52f 47f
7:54am 5 10 mph - - 47f
7:48am 7 11 mph 1010.2mb 52f 47f
7:36am 6 10 mph 1010.3mb 52f 47f
7:30am 6 14 mph 1010.3mb 52f 47f
7:24am 6 10 mph 1010.5mb 52f 47f
7:18am 7 11 mph 1010.5mb 52f 47f
7:12am 7 13 mph 1010.5mb 52f 47f
7:06am 7 11 mph 1010.5mb 52f 47f
7:00am 7 13 mph 1010.4mb 52f 47f
6:54am 6 10 mph 1010.4mb 52f 47f
6:48am 7 13 mph 1010.4mb 52f 46f
6:36am 5 7 mph - - 46f
6:30am 6 10 mph 1010.6mb 52f 46f
6:24am 3 8 mph 1010.7mb 52f 46f
6:18am 3 9 mph 1010.8mb 52f 46f
6:12am 5 8 mph 1010.9mb 52f 46f
6:06am 6 11 mph 1010.9mb 52f 47f
6:00am 6 10 mph 1011.1mb 52f 46f
5:54am 5 7 mph 1011.2mb 51f 46f